UPSVAC Airport Information Service

Kansas City International Airport

ICAO: KMCI Country: United States
Latitude: 39.2976 Longitude: -94.7139
Latest Arrival : UPS1447 (KSDF-KMCI) Latest Departure : UPS1448 (KMCI-KSDF)


WX CaptureLIVE
Data provided by noaa.gov | Fetched at 10:19:52

METAR : KMCI 010953Z 21005KT 6SM BR CLR M06/M06 A3022 RMK AO2 SLP242 T10561061 $

TAF : KMCI 010520Z 0106/0206 VRB06KT P6SM SKC


Runway Data for KMCI
Data provided by openaviationdata.com

Runway ID Mag Var Hdg Length Elevation Surface ILS Freq ILS Id ILS Slope
01L 4 10810 ft 1026 ft Concrete 110.5 IDOT 3
01R 4 9507 ft 1026 ft Concrete 110.75 IPVL 3
9 4 91° 9487 ft 1026 ft Asphalt 109.7 IRNI 3
19L 4 188° 9507 ft 1026 ft Concrete 109.55 IDYH 3
19R 4 188° 10810 ft 1026 ft Concrete 109.1 IPAJ 3
27 4 271° 9487 ft 1026 ft Asphalt 109.7 IUQY 3

Kansas City International Airport, United States
Use only for reference purposes



Not for navigational purposes.